Time;durP1;ratioP1;P1;durP2;ratioP2;P2;SDS_P1;SDS_P2;PMS_P1;PMS_P2;Temp;Humidity;BMP_temperature;BMP_pressure;BME280_temperature;BME280_humidity;BME280_pressure;Samples;Min_cycle;Max_cycle;Signal;HPM_P1;HPM_P2
2021/04/06 00:00:40;;;;;;;11.37;10.67;;;24.10;89.60;;;;;;3616596;39;20557;-45
2021/04/06 00:03:10;;;;;;;10.43;9.80;;;24.10;89.60;;;;;;3618275;39;20496;-45
2021/04/06 00:05:37;;;;;;;10.67;10.00;;;24.10;89.60;;;;;;3617977;39;20484;-45
2021/04/06 00:08:05;;;;;;;10.33;9.87;;;24.10;89.60;;;;;;3617883;39;20478;-45
2021/04/06 00:10:37;;;;;;;9.83;9.43;;;24.10;89.60;;;;;;3616421;39;20489;-45
2021/04/06 00:13:06;;;;;;;10.57;10.10;;;24.10;89.60;;;;;;3615611;39;20486;-45
2021/04/06 00:15:34;;;;;;;10.00;9.40;;;24.10;89.50;;;;;;3616527;39;20501;-45
2021/04/06 00:18:04;;;;;;;10.37;9.87;;;24.10;89.50;;;;;;3618071;39;20488;-45
2021/04/06 00:20:34;;;;;;;10.40;9.67;;;24.10;89.50;;;;;;3617363;39;20577;-45
2021/04/06 00:23:04;;;;;;;10.33;9.83;;;24.10;89.60;;;;;;3617920;39;20827;-45
2021/04/06 00:25:33;;;;;;;10.10;9.70;;;24.10;89.60;;;;;;3617293;39;20473;-45
2021/04/06 00:28:03;;;;;;;10.27;9.67;;;24.10;89.60;;;;;;3617362;39;20499;-45
2021/04/06 00:30:32;;;;;;;10.37;9.77;;;24.10;89.50;;;;;;3616432;39;20462;-45
2021/04/06 00:33:04;;;;;;;10.43;9.93;;;24.10;89.50;;;;;;3616455;39;21054;-45
2021/04/06 00:35:34;;;;;;;9.83;9.43;;;24.10;89.40;;;;;;3617128;39;20534;-45
2021/04/06 00:38:03;;;;;;;10.00;9.30;;;24.10;89.40;;;;;;3616087;39;20484;-45
2021/04/06 00:40:33;;;;;;;9.73;9.33;;;24.00;89.40;;;;;;3617863;39;20565;-45
2021/04/06 00:43:03;;;;;;;10.20;9.60;;;24.10;89.50;;;;;;3616085;39;20681;-45
2021/04/06 00:45:31;;;;;;;10.50;10.00;;;24.10;89.50;;;;;;3618042;39;20505;-45
2021/04/06 00:47:59;;;;;;;10.80;10.27;;;24.10;89.60;;;;;;3616281;39;20678;-45
2021/04/06 00:50:32;;;;;;;10.53;10.10;;;24.00;89.50;;;;;;3618429;39;20486;-45
2021/04/06 00:53:00;;;;;;;10.87;10.23;;;24.00;89.70;;;;;;3617575;39;20484;-45
2021/04/06 00:55:33;;;;;;;10.77;10.27;;;24.00;90.20;;;;;;3617745;39;20854;-45
2021/04/06 00:58:01;;;;;;;9.77;9.23;;;23.90;89.80;;;;;;3617321;39;20480;-45
2021/04/06 01:00:29;;;;;;;10.70;10.30;;;23.90;89.80;;;;;;3617450;39;20489;-45
2021/04/06 01:03:03;;;;;;;10.80;10.00;;;23.90;89.90;;;;;;3616448;39;20783;-45
2021/04/06 01:05:31;;;;;;;10.10;9.70;;;23.90;89.90;;;;;;3617764;39;20519;-45
2021/04/06 01:07:59;;;;;;;10.10;9.67;;;23.90;89.90;;;;;;3617439;39;20862;-45
2021/04/06 01:10:27;;;;;;;9.67;9.37;;;23.90;89.90;;;;;;3616716;39;20837;-45
2021/04/06 01:12:55;;;;;;;11.30;10.57;;;23.90;90.00;;;;;;3615984;39;20493;-45
2021/04/06 01:15:23;;;;;;;10.63;10.20;;;23.90;89.90;;;;;;3616781;39;20490;-45
2021/04/06 01:17:51;;;;;;;10.27;9.80;;;23.90;89.80;;;;;;3617161;39;20526;-45
2021/04/06 01:20:20;;;;;;;10.23;9.73;;;23.90;89.80;;;;;;3614597;39;20468;-45
2021/04/06 01:22:48;;;;;;;10.17;9.67;;;23.90;89.80;;;;;;3615634;39;20682;-45
2021/04/06 01:25:21;;;;;;;9.87;9.47;;;23.90;89.90;;;;;;3616214;39;20564;-45
2021/04/06 01:27:48;;;;;;;9.93;9.53;;;23.90;89.80;;;;;;3616855;39;20495;-45
2021/04/06 01:30:21;;;;;;;9.90;9.40;;;23.90;89.80;;;;;;3616770;39;20464;-45
2021/04/06 01:32:50;;;;;;;10.13;9.70;;;23.90;89.80;;;;;;3616871;39;20485;-45
2021/04/06 01:35:17;;;;;;;9.90;9.50;;;23.90;89.60;;;;;;3616767;39;20473;-45
2021/04/06 01:37:44;;;;;;;9.73;9.33;;;23.90;89.60;;;;;;3616138;39;20585;-45
2021/04/06 01:40:12;;;;;;;9.97;9.57;;;23.90;89.60;;;;;;3615733;39;20481;-45
2021/04/06 01:42:41;;;;;;;10.80;10.23;;;23.90;89.60;;;;;;3616217;39;20489;-45
2021/04/06 01:45:10;;;;;;;10.30;9.80;;;23.90;89.60;;;;;;3616215;39;20580;-45
2021/04/06 01:47:39;;;;;;;10.17;9.77;;;24.00;89.70;;;;;;3615871;39;20504;-45
2021/04/06 01:50:07;;;;;;;10.40;9.90;;;24.00;89.60;;;;;;3614148;39;20474;-45
2021/04/06 01:52:34;;;;;;;10.83;10.43;;;23.90;89.50;;;;;;3616280;39;20509;-45
2021/04/06 01:55:07;;;;;;;10.43;10.00;;;24.00;89.60;;;;;;3616969;39;20488;-45
2021/04/06 01:57:35;;;;;;;10.20;9.80;;;23.90;89.50;;;;;;3615801;39;20478;-45
2021/04/06 02:00:13;;;;;;;9.43;9.13;;;23.90;89.50;;;;;;3614625;39;20732;-45
2021/04/06 02:02:46;;;;;;;10.00;9.60;;;23.90;89.60;;;;;;3616492;39;20479;-45
2021/04/06 02:05:14;;;;;;;10.90;10.50;;;23.90;89.60;;;;;;3616924;39;20488;-45
2021/04/06 02:07:43;;;;;;;10.77;10.30;;;23.90;89.70;;;;;;3615705;39;20463;-45
2021/04/06 02:10:11;;;;;;;10.23;9.80;;;23.80;89.60;;;;;;3615268;39;20497;-45
2021/04/06 02:12:38;;;;;;;10.40;10.00;;;23.90;89.70;;;;;;3616082;39;20484;-45
2021/04/06 02:15:10;;;;;;;10.63;10.20;;;23.90;89.80;;;;;;3616256;39;20491;-45
2021/04/06 02:17:47;;;;;;;10.80;10.27;;;23.90;89.80;;;;;;3616307;39;20477;-45
2021/04/06 02:20:24;;;;;;;10.30;9.80;;;23.90;89.70;;;;;;3616163;39;20538;-45
2021/04/06 02:22:58;;;;;;;11.40;10.90;;;23.90;90.10;;;;;;3613311;39;20473;-45
2021/04/06 02:25:25;;;;;;;10.97;10.37;;;23.90;89.50;;;;;;3614158;39;20462;-45
2021/04/06 02:27:51;;;;;;;10.83;10.33;;;23.90;89.30;;;;;;3616248;39;20493;-45
2021/04/06 02:30:29;;;;;;;10.97;10.10;;;24.00;89.30;;;;;;3616831;39;20470;-45
2021/04/06 02:32:56;;;;;;;11.17;10.77;;;24.00;89.30;;;;;;3615939;39;20499;-45
2021/04/06 02:35:23;;;;;;;10.73;10.23;;;24.00;89.20;;;;;;3616554;39;20907;-45
2021/04/06 02:37:50;;;;;;;10.60;10.17;;;23.90;89.20;;;;;;3617598;39;20497;-45
2021/04/06 02:40:18;;;;;;;10.77;10.20;;;24.00;89.30;;;;;;3617114;39;20470;-45
2021/04/06 02:42:47;;;;;;;10.47;9.90;;;23.90;89.30;;;;;;3616581;39;20489;-45
2021/04/06 02:45:16;;;;;;;10.30;9.90;;;23.90;89.30;;;;;;3616045;39;20641;-45
2021/04/06 02:47:47;;;;;;;10.40;9.90;;;23.90;89.30;;;;;;3617488;39;20476;-45
2021/04/06 02:50:15;;;;;;;10.50;10.10;;;23.90;89.40;;;;;;3617680;39;20699;-45
2021/04/06 02:52:42;;;;;;;10.73;10.27;;;23.90;89.60;;;;;;3616706;39;20512;-45
2021/04/06 02:55:11;;;;;;;11.07;10.50;;;23.90;89.60;;;;;;3618330;39;20907;-45
2021/04/06 02:57:41;;;;;;;10.50;10.10;;;23.90;89.50;;;;;;3618527;39;20482;-45
2021/04/06 03:00:09;;;;;;;11.10;10.60;;;23.90;89.60;;;;;;3617615;39;20485;-45
2021/04/06 03:02:39;;;;;;;10.80;10.30;;;23.90;89.50;;;;;;3616236;39;20477;-45
2021/04/06 03:05:08;;;;;;;11.03;10.53;;;23.90;89.40;;;;;;3618646;39;20460;-45
2021/04/06 03:07:45;;;;;;;10.63;10.23;;;23.90;89.40;;;;;;3618109;39;20743;-45
2021/04/06 03:10:19;;;;;;;10.70;10.30;;;23.90;89.30;;;;;;3617027;39;20522;-45
2021/04/06 03:12:47;;;;;;;11.17;10.73;;;23.90;89.20;;;;;;3616770;39;20480;-45
2021/04/06 03:15:19;;;;;;;11.63;11.00;;;24.00;89.20;;;;;;3616985;39;20577;-45
2021/04/06 03:17:49;;;;;;;11.07;10.67;;;23.90;89.10;;;;;;3616343;39;20946;-45
2021/04/06 03:20:18;;;;;;;11.60;11.07;;;23.90;89.20;;;;;;3615631;39;20570;-45
2021/04/06 03:22:45;;;;;;;11.57;11.07;;;23.90;89.20;;;;;;3616561;39;20476;-45
2021/04/06 03:25:13;;;;;;;11.50;11.10;;;23.90;89.20;;;;;;3617165;39;20475;-45
2021/04/06 03:27:43;;;;;;;12.77;11.93;;;23.90;89.10;;;;;;3616622;39;20494;-45
2021/04/06 03:30:11;;;;;;;10.83;10.43;;;23.90;89.10;;;;;;3617655;39;20502;-45
2021/04/06 03:32:38;;;;;;;10.83;10.40;;;24.00;89.20;;;;;;3617222;39;20480;-45
2021/04/06 03:35:06;;;;;;;11.53;11.03;;;24.00;89.10;;;;;;3617189;39;20474;-45
2021/04/06 03:37:36;;;;;;;11.77;11.13;;;24.00;89.20;;;;;;3616674;39;20858;-45
2021/04/06 03:40:03;;;;;;;11.10;10.60;;;23.90;89.00;;;;;;3617002;39;20504;-45
2021/04/06 03:42:31;;;;;;;11.60;11.20;;;23.90;89.00;;;;;;3616443;39;20713;-45
2021/04/06 03:45:08;;;;;;;11.53;11.03;;;24.00;89.10;;;;;;3615424;39;20545;-45
2021/04/06 03:47:54;;;;;;;11.83;11.33;;;24.00;89.10;;;;;;3615845;39;20485;-45
2021/04/06 03:50:35;;;;;;;11.13;10.60;;;24.00;89.20;;;;;;3615413;39;20481;-45
2021/04/06 03:53:04;;;;;;;11.77;11.20;;;23.90;89.00;;;;;;3615546;39;20572;-45
2021/04/06 03:55:31;;;;;;;12.17;11.57;;;23.90;89.00;;;;;;3615984;39;20595;-45
2021/04/06 03:58:06;;;;;;;12.10;11.63;;;24.00;89.00;;;;;;3616654;39;20739;-45
2021/04/06 04:00:33;;;;;;;11.43;11.03;;;24.00;89.00;;;;;;3616906;39;20496;-45
2021/04/06 04:03:00;;;;;;;11.63;11.23;;;24.10;88.90;;;;;;3614541;39;20495;-45
2021/04/06 04:05:27;;;;;;;11.43;10.93;;;24.10;89.50;;;;;;3615286;39;20608;-45
2021/04/06 04:07:54;;;;;;;11.70;11.10;;;24.10;88.70;;;;;;3616169;39;20465;-45
2021/04/06 04:10:21;;;;;;;11.37;10.97;;;24.10;88.60;;;;;;3616452;39;20488;-45
2021/04/06 04:12:48;;;;;;;11.50;11.10;;;24.10;88.50;;;;;;3615981;39;20847;-45
2021/04/06 04:15:16;;;;;;;12.13;11.43;;;24.10;88.50;;;;;;3616353;39;20855;-45
2021/04/06 04:17:45;;;;;;;11.80;11.30;;;24.10;88.40;;;;;;3615304;39;20919;-45
2021/04/06 04:20:13;;;;;;;11.70;11.23;;;24.10;88.30;;;;;;3616100;39;20478;-45
2021/04/06 04:22:40;;;;;;;12.00;11.50;;;24.10;88.40;;;;;;3614413;39;20670;-45
2021/04/06 04:25:08;;;;;;;12.50;11.90;;;24.10;88.30;;;;;;3614543;39;20519;-45
2021/04/06 04:27:36;;;;;;;12.80;12.20;;;24.10;88.30;;;;;;3615289;39;20484;-45
2021/04/06 04:30:03;;;;;;;13.00;12.30;;;24.20;88.40;;;;;;3616328;39;20505;-45
2021/04/06 04:32:29;;;;;;;12.60;12.00;;;24.20;88.30;;;;;;3614761;39;20785;-45
2021/04/06 04:34:56;;;;;;;12.47;11.97;;;24.20;88.30;;;;;;3614770;39;20514;-45
2021/04/06 04:37:23;;;;;;;12.13;11.63;;;24.20;88.20;;;;;;3614540;39;20804;-45
2021/04/06 04:39:49;;;;;;;12.00;11.57;;;24.20;88.10;;;;;;3613969;39;20486;-45
2021/04/06 04:42:18;;;;;;;12.70;12.20;;;24.20;88.10;;;;;;3613511;39;20865;-45
2021/04/06 04:44:45;;;;;;;12.90;12.50;;;24.20;88.00;;;;;;3613305;39;20539;-45
2021/04/06 04:47:12;;;;;;;12.60;12.20;;;24.30;88.10;;;;;;3613029;39;20483;-45
2021/04/06 04:49:39;;;;;;;13.00;12.50;;;24.20;87.90;;;;;;3612721;39;20474;-45
2021/04/06 04:52:06;;;;;;;13.27;12.67;;;24.30;88.00;;;;;;3613496;39;20878;-45
2021/04/06 04:54:32;;;;;;;13.80;13.20;;;24.30;88.00;;;;;;3611667;39;20474;-45
2021/04/06 04:56:59;;;;;;;13.80;13.23;;;24.30;87.90;;;;;;3613401;39;20474;-45
2021/04/06 04:59:26;;;;;;;13.07;12.53;;;24.30;88.00;;;;;;3614334;39;20490;-45
2021/04/06 05:01:53;;;;;;;13.43;12.70;;;24.30;87.90;;;;;;3611266;39;20458;-45
2021/04/06 05:04:20;;;;;;;13.57;12.63;;;24.30;87.80;;;;;;3613408;39;20613;-45
2021/04/06 05:06:47;;;;;;;12.90;12.30;;;24.20;87.90;;;;;;3613790;39;21160;-45
2021/04/06 05:09:13;;;;;;;12.80;12.30;;;24.20;88.10;;;;;;3613457;39;20493;-45
2021/04/06 05:11:40;;;;;;;12.90;12.27;;;24.10;88.40;;;;;;3614855;39;20483;-45
2021/04/06 05:14:07;;;;;;;13.60;12.97;;;24.10;88.50;;;;;;3612520;39;20494;-45
2021/04/06 05:16:33;;;;;;;12.83;12.33;;;24.10;88.70;;;;;;3612825;39;20665;-45
2021/04/06 05:19:01;;;;;;;14.27;13.30;;;24.10;88.80;;;;;;3611721;39;20515;-45
2021/04/06 05:21:28;;;;;;;12.70;12.00;;;24.10;88.90;;;;;;3612700;39;20481;-45
2021/04/06 05:23:55;;;;;;;12.77;12.07;;;24.10;89.00;;;;;;3612695;39;20517;-45
2021/04/06 05:26:21;;;;;;;12.73;11.83;;;24.00;88.90;;;;;;3612348;39;20492;-45
2021/04/06 05:28:49;;;;;;;11.83;10.97;;;24.10;89.00;;;;;;3612552;39;20501;-45
2021/04/06 05:31:15;;;;;;;12.60;11.90;;;24.10;89.00;;;;;;3612303;39;20560;-45
2021/04/06 05:33:42;;;;;;;12.17;11.57;;;24.10;89.00;;;;;;3610797;39;20685;-45
2021/04/06 05:36:09;;;;;;;12.73;12.13;;;24.10;88.90;;;;;;3610054;39;20506;-45
2021/04/06 05:38:36;;;;;;;12.77;12.20;;;24.10;88.90;;;;;;3609729;39;20496;-45
2021/04/06 05:41:03;;;;;;;12.50;11.90;;;24.10;88.90;;;;;;3609386;39;20492;-45
2021/04/06 05:43:31;;;;;;;13.03;12.37;;;24.10;88.90;;;;;;3608613;39;20572;-45
2021/04/06 05:45:59;;;;;;;12.53;11.83;;;24.10;88.90;;;;;;3611319;39;20588;-45
2021/04/06 05:48:26;;;;;;;12.93;11.67;;;24.20;88.90;;;;;;3609100;39;20489;-45
2021/04/06 05:50:54;;;;;;;12.07;11.57;;;24.20;88.80;;;;;;3606239;39;20481;-45
2021/04/06 05:53:21;;;;;;;12.40;11.90;;;24.20;89.40;;;;;;3607532;39;20803;-45
2021/04/06 05:55:48;;;;;;;11.77;11.20;;;24.20;88.60;;;;;;3605896;39;20489;-45
2021/04/06 05:58:15;;;;;;;12.30;11.70;;;24.20;88.60;;;;;;3604605;39;20525;-45
2021/04/06 06:00:44;;;;;;;12.10;11.50;;;24.20;88.70;;;;;;3603833;39;20486;-45
2021/04/06 06:03:12;;;;;;;12.33;11.73;;;24.20;88.80;;;;;;3604064;39;21305;-45
2021/04/06 06:05:41;;;;;;;12.50;11.40;;;24.20;88.80;;;;;;3604391;39;20479;-45
2021/04/06 06:08:12;;;;;;;13.13;11.90;;;24.20;88.60;;;;;;3603557;39;20487;-45
2021/04/06 06:10:41;;;;;;;12.43;11.60;;;24.20;88.70;;;;;;3608353;39;21035;-45
2021/04/06 06:13:16;;;;;;;12.70;11.80;;;24.20;88.70;;;;;;3598993;39;20481;-45
2021/04/06 06:15:43;;;;;;;13.17;12.23;;;24.20;88.80;;;;;;3593847;39;20515;-45
2021/04/06 06:18:10;;;;;;;13.07;12.10;;;24.20;88.80;;;;;;3591332;39;21149;-45
2021/04/06 06:20:37;;;;;;;13.30;12.23;;;24.20;88.90;;;;;;3590471;39;20751;-45
2021/04/06 06:23:22;;;;;;;12.97;12.00;;;24.20;89.00;;;;;;3592483;39;20488;-45
2021/04/06 06:26:14;;;;;;;13.10;12.20;;;24.20;88.90;;;;;;3591428;39;20498;-45
2021/04/06 06:28:42;;;;;;;13.70;12.50;;;24.20;88.90;;;;;;3580551;39;20489;-45
2021/04/06 06:31:10;;;;;;;13.30;12.40;;;24.20;88.70;;;;;;3582561;39;20529;-45
2021/04/06 06:33:38;;;;;;;12.73;11.87;;;24.30;88.70;;;;;;3580503;39;20470;-45
2021/04/06 06:36:09;;;;;;;12.77;12.17;;;24.30;88.50;;;;;;3584298;39;20870;-45
2021/04/06 06:38:41;;;;;;;13.80;12.57;;;24.30;88.40;;;;;;3592711;39;20537;-45
2021/04/06 06:41:13;;;;;;;13.47;12.47;;;24.40;88.40;;;;;;3610025;39;20582;-45
2021/04/06 06:43:43;;;;;;;12.93;11.90;;;24.40;88.30;;;;;;3602048;39;20521;-45
2021/04/06 06:46:19;;;;;;;13.43;12.17;;;24.40;88.20;;;;;;3603674;39;20577;-45
2021/04/06 06:48:59;;;;;;;13.20;12.30;;;24.40;88.10;;;;;;3606866;39;20742;-45
2021/04/06 06:51:31;;;;;;;13.87;12.60;;;24.40;88.20;;;;;;3607869;39;21376;-45
2021/04/06 06:53:59;;;;;;;14.73;13.13;;;24.30;88.60;;;;;;3610498;39;20917;-45
2021/04/06 06:56:34;;;;;;;15.13;12.80;;;24.30;89.00;;;;;;3611907;39;21042;-46
2021/04/06 06:59:02;;;;;;;14.97;13.83;;;24.30;89.30;;;;;;3602112;39;20594;-45
2021/04/06 07:01:31;;;;;;;18.40;16.50;;;24.30;89.60;;;;;;3608843;39;20886;-45
2021/04/06 07:04:05;;;;;;;24.40;19.83;;;24.30;89.90;;;;;;3608022;39;21163;-45
2021/04/06 07:06:32;;;;;;;38.33;32.60;;;24.30;90.00;;;;;;3612010;39;21401;-45
2021/04/06 07:08:59;;;;;;;60.37;46.23;;;24.20;90.00;;;;;;3613352;39;20569;-45
2021/04/06 07:11:27;;;;;;;67.60;48.10;;;24.20;90.30;;;;;;3604595;39;20908;-45
2021/04/06 07:13:55;;;;;;;70.90;50.63;;;24.20;90.30;;;;;;3611461;39;21308;-45
2021/04/06 07:16:22;;;;;;;69.43;50.03;;;24.20;90.40;;;;;;3610980;39;20936;-45
2021/04/06 07:18:51;;;;;;;60.60;47.17;;;24.20;90.40;;;;;;3612823;39;20485;-45
2021/04/06 07:21:19;;;;;;;73.77;51.27;;;24.20;90.50;;;;;;3612663;39;20558;-45
2021/04/06 07:23:53;;;;;;;73.13;48.47;;;24.20;90.60;;;;;;3614122;39;20794;-45
2021/04/06 07:26:20;;;;;;;55.10;44.90;;;24.20;90.70;;;;;;3611158;39;20483;-45
2021/04/06 07:28:48;;;;;;;54.30;46.00;;;24.10;90.70;;;;;;3607045;39;20477;-45
2021/04/06 07:31:15;;;;;;;54.83;42.40;;;24.10;90.70;;;;;;3603047;39;20500;-45
2021/04/06 07:33:45;;;;;;;57.90;41.57;;;24.10;90.80;;;;;;3613879;39;20499;-45
2021/04/06 07:36:15;;;;;;;50.73;41.80;;;24.10;90.80;;;;;;3609018;39;20485;-45
2021/04/06 07:38:46;;;;;;;53.17;40.77;;;24.10;90.90;;;;;;3594494;39;20504;-45
2021/04/06 07:41:14;;;;;;;48.10;39.03;;;24.10;90.90;;;;;;3610005;39;20488;-45
2021/04/06 07:43:42;;;;;;;53.17;37.87;;;24.10;90.90;;;;;;3611861;39;20475;-45
2021/04/06 07:46:08;;;;;;;52.20;37.90;;;24.10;90.90;;;;;;3612451;39;20498;-45
2021/04/06 07:48:48;;;;;;;46.30;35.80;;;24.10;90.90;;;;;;3609174;39;21187;-45
2021/04/06 07:51:21;;;;;;;37.50;32.67;;;24.10;91.00;;;;;;3610208;39;20468;-45
2021/04/06 07:54:12;;;;;;;43.73;34.60;;;24.10;91.00;;;;;;3610762;39;20469;-45
2021/04/06 07:56:51;;;;;;;34.97;30.70;;;24.10;91.00;;;;;;3611705;39;20476;-45
2021/04/06 07:59:52;;;;;;;36.87;31.27;;;24.10;91.00;;;;;;3607937;39;20487;-45
2021/04/06 08:02:28;;;;;;;34.30;28.23;;;24.10;91.10;;;;;;3608912;39;20484;-45
2021/04/06 08:04:57;;;;;;;32.37;29.00;;;24.10;91.10;;;;;;3611457;39;20497;-45
2021/04/06 08:07:26;;;;;;;30.27;27.40;;;24.10;91.10;;;;;;3606626;39;21064;-45
2021/04/06 08:09:54;;;;;;;33.97;28.47;;;24.20;91.10;;;;;;3606241;39;20503;-45
2021/04/06 08:12:22;;;;;;;27.70;25.07;;;24.20;91.10;;;;;;3606342;39;20495;-45
2021/04/06 08:14:50;;;;;;;35.63;26.30;;;24.20;91.20;;;;;;3603327;39;21026;-45
2021/04/06 08:17:46;;;;;;;33.30;25.13;;;24.30;91.20;;;;;;3611890;39;20480;-45
2021/04/06 08:20:35;;;;;;;28.20;25.20;;;24.30;91.20;;;;;;3609286;39;20490;-45
2021/04/06 08:23:03;;;;;;;27.63;24.60;;;24.40;91.30;;;;;;3602516;39;20949;-45
2021/04/06 08:25:45;;;;;;;28.47;24.60;;;24.40;91.30;;;;;;3604869;39;20488;-45
2021/04/06 08:28:38;;;;;;;26.00;23.33;;;24.40;91.30;;;;;;3610570;39;20480;-45
2021/04/06 08:31:28;;;;;;;26.07;22.90;;;24.40;91.30;;;;;;3611914;39;20910;-45
2021/04/06 08:34:26;;;;;;;27.40;22.90;;;24.40;91.20;;;;;;3599428;39;20601;-45
2021/04/06 08:37:09;;;;;;;26.20;21.30;;;24.40;91.20;;;;;;3587381;39;20486;-45
2021/04/06 08:39:37;;;;;;;27.20;22.43;;;24.40;91.20;;;;;;3607608;39;20491;-44
2021/04/06 08:42:05;;;;;;;28.60;22.83;;;24.50;91.10;;;;;;3609574;39;20769;-44
2021/04/06 08:44:35;;;;;;;22.60;20.50;;;24.40;90.90;;;;;;3610620;39;20560;-45
2021/04/06 08:47:04;;;;;;;30.13;21.10;;;24.40;91.00;;;;;;3603036;39;20500;-45
2021/04/06 08:49:30;;;;;;;23.83;20.83;;;24.40;91.00;;;;;;3612797;39;20476;-45
2021/04/06 08:51:58;;;;;;;23.37;20.87;;;24.30;91.00;;;;;;3607685;39;20491;-45
2021/04/06 08:54:28;;;;;;;21.97;19.77;;;24.30;91.10;;;;;;3604840;39;20473;-45
2021/04/06 08:56:57;;;;;;;21.73;19.47;;;24.30;91.10;;;;;;3606741;39;20473;-45
2021/04/06 08:59:32;;;;;;;21.37;18.27;;;24.30;91.00;;;;;;3611077;39;20591;-45
2021/04/06 09:02:01;;;;;;;19.93;17.73;;;24.30;91.00;;;;;;3602111;39;20543;-45
2021/04/06 09:04:29;;;;;;;20.03;18.03;;;24.20;91.10;;;;;;3595529;39;20502;-45
2021/04/06 09:06:56;;;;;;;26.83;17.67;;;24.10;91.30;;;;;;3605486;39;20808;-45
2021/04/06 09:09:24;;;;;;;18.57;16.50;;;24.10;91.40;;;;;;3610334;39;20489;-44
2021/04/06 09:11:53;;;;;;;46.90;19.40;;;24.10;91.40;;;;;;3607849;39;20683;-44
2021/04/06 09:14:21;;;;;;;21.70;16.70;;;24.10;91.60;;;;;;3592748;39;20886;-44
2021/04/06 09:16:51;;;;;;;22.13;16.70;;;24.20;91.40;;;;;;3595395;39;20696;-44
2021/04/06 09:19:18;;;;;;;19.03;17.17;;;24.30;91.20;;;;;;3614592;39;20568;-45
2021/04/06 09:21:46;;;;;;;18.67;15.90;;;24.30;91.80;;;;;;3611266;39;20910;-45
2021/04/06 09:24:15;;;;;;;17.13;15.67;;;24.40;92.80;;;;;;3605437;39;20503;-45
2021/04/06 09:26:42;;;;;;;17.60;15.87;;;24.40;92.60;;;;;;3610705;39;20890;-45
2021/04/06 09:29:13;;;;;;;17.13;15.67;;;24.40;92.30;;;;;;3608434;39;20489;-45
2021/04/06 09:31:43;;;;;;;16.57;15.10;;;24.40;92.30;;;;;;3601789;39;20493;-45
2021/04/06 09:34:13;;;;;;;22.30;16.00;;;24.40;92.30;;;;;;3606144;39;20482;-45
2021/04/06 09:36:42;;;;;;;20.03;15.90;;;24.30;92.40;;;;;;3610805;39;20462;-45
2021/04/06 09:39:13;;;;;;;19.60;15.50;;;24.30;92.40;;;;;;3609150;39;20489;-45
2021/04/06 09:41:42;;;;;;;16.77;15.00;;;24.20;92.40;;;;;;3611053;39;20493;-45
2021/04/06 09:44:12;;;;;;;15.90;14.30;;;24.20;92.50;;;;;;3602339;39;20484;-45
2021/04/06 09:46:42;;;;;;;17.17;15.50;;;24.20;92.50;;;;;;3613371;39;20480;-45
2021/04/06 09:49:10;;;;;;;17.07;15.43;;;24.20;92.50;;;;;;3611177;39;20489;-44
2021/04/06 09:51:37;;;;;;;20.40;16.63;;;24.10;92.50;;;;;;3608907;39;20752;-45
2021/04/06 09:54:06;;;;;;;16.70;15.00;;;24.10;92.60;;;;;;3609659;39;20649;-45
2021/04/06 09:56:35;;;;;;;16.57;14.17;;;24.00;92.70;;;;;;3602073;39;20781;-45
2021/04/06 09:59:03;;;;;;;17.20;15.50;;;24.00;92.80;;;;;;3608863;39;20756;-45
2021/04/06 10:01:37;;;;;;;17.50;15.70;;;24.00;92.90;;;;;;3609410;39;20746;-45
2021/04/06 10:04:04;;;;;;;13.13;12.40;;;23.90;92.80;;;;;;3607149;39;20503;-44
2021/04/06 10:06:36;;;;;;;12.80;12.03;;;23.90;72.50;;;;;;3612467;39;20461;-44
2021/04/06 10:09:22;;;;;;;13.10;12.20;;;23.50;58.70;;;;;;3612112;39;20510;-44
2021/04/06 10:11:51;;;;;;;17.47;13.70;;;23.00;55.10;;;;;;3609114;39;20509;-43
2021/04/06 10:14:18;;;;;;;17.30;13.90;;;22.90;69.00;;;;;;3610538;39;20486;-44
2021/04/06 10:16:47;;;;;;;18.60;14.93;;;22.90;78.70;;;;;;3609118;39;20505;-44
2021/04/06 10:19:20;;;;;;;15.27;14.00;;;23.00;82.10;;;;;;3611094;39;20544;-44
2021/04/06 10:22:05;;;;;;;18.93;13.70;;;23.10;83.60;;;;;;3603479;39;20464;-44
2021/04/06 10:24:34;;;;;;;14.37;13.20;;;23.20;84.40;;;;;;3611948;39;20541;-44
2021/04/06 10:27:06;;;;;;;14.33;13.20;;;23.20;84.80;;;;;;3609185;39;20818;-44
2021/04/06 10:29:33;;;;;;;12.93;11.97;;;23.20;85.00;;;;;;3596165;39;20804;-44
2021/04/06 10:32:01;;;;;;;13.40;12.60;;;23.30;85.40;;;;;;3610227;39;20943;-43
2021/04/06 10:34:28;;;;;;;13.83;12.63;;;23.30;85.60;;;;;;3609720;39;20481;-43
2021/04/06 10:36:58;;;;;;;12.93;11.97;;;23.40;85.80;;;;;;3609161;39;20872;-43
2021/04/06 10:39:38;;;;;;;14.03;12.67;;;23.50;86.10;;;;;;3608104;39;20665;-43
2021/04/06 10:42:06;;;;;;;12.73;11.77;;;23.50;86.90;;;;;;3606487;39;20493;-43
2021/04/06 10:44:34;;;;;;;13.23;12.33;;;23.50;86.30;;;;;;3608588;39;20539;-43
2021/04/06 10:47:02;;;;;;;13.20;12.33;;;23.60;86.50;;;;;;3608250;39;20525;-43
2021/04/06 10:49:28;;;;;;;13.90;12.67;;;23.60;86.60;;;;;;3606415;39;20517;-43
2021/04/06 10:51:58;;;;;;;12.27;11.43;;;23.60;86.50;;;;;;3605913;39;20495;-43
2021/04/06 10:54:25;;;;;;;13.00;12.10;;;23.70;86.70;;;;;;3609158;39;20483;-43
2021/04/06 10:56:55;;;;;;;13.93;12.60;;;23.70;86.70;;;;;;3608964;39;20486;-43
2021/04/06 10:59:30;;;;;;;13.63;12.47;;;23.70;86.80;;;;;;3608653;39;20764;-43
2021/04/06 11:01:58;;;;;;;13.50;12.50;;;23.70;86.80;;;;;;3607798;39;20605;-43
2021/04/06 11:04:28;;;;;;;13.53;12.57;;;23.80;86.90;;;;;;3608157;39;20604;-43
2021/04/06 11:06:58;;;;;;;13.83;12.87;;;23.80;86.90;;;;;;3606833;39;20741;-43
2021/04/06 11:09:27;;;;;;;13.43;12.43;;;23.90;86.90;;;;;;3606013;39;20564;-43
2021/04/06 11:11:56;;;;;;;14.57;13.43;;;23.90;86.90;;;;;;3609436;39;20683;-43
2021/04/06 11:14:24;;;;;;;13.47;12.57;;;23.90;86.90;;;;;;3609957;39;20501;-43
2021/04/06 11:16:52;;;;;;;13.67;12.80;;;23.90;86.80;;;;;;3608530;39;20531;-43
2021/04/06 11:19:23;;;;;;;12.63;11.90;;;23.90;86.90;;;;;;3609808;39;20487;-43
2021/04/06 11:21:53;;;;;;;12.77;11.80;;;23.90;86.90;;;;;;3609869;39;20492;-43
2021/04/06 11:24:22;;;;;;;12.47;11.80;;;23.90;86.90;;;;;;3600067;39;20769;-43
2021/04/06 11:26:51;;;;;;;13.00;12.10;;;24.00;87.00;;;;;;3611452;39;20478;-43
2021/04/06 11:29:20;;;;;;;12.70;12.00;;;24.00;87.00;;;;;;3611107;39;20813;-43
2021/04/06 11:31:50;;;;;;;13.13;12.33;;;24.00;87.10;;;;;;3608610;39;20491;-43
2021/04/06 11:34:17;;;;;;;12.60;11.60;;;24.00;87.00;;;;;;3609368;39;20683;-43
2021/04/06 11:36:45;;;;;;;12.67;11.97;;;24.00;87.10;;;;;;3605974;39;20703;-43
2021/04/06 11:39:15;;;;;;;12.40;11.67;;;24.00;87.10;;;;;;3609576;39;20625;-43
2021/04/06 11:41:44;;;;;;;12.33;11.67;;;24.00;87.30;;;;;;3609824;39;20783;-43
2021/04/06 11:44:12;;;;;;;11.93;11.23;;;24.00;87.30;;;;;;3608233;39;20485;-43
2021/04/06 11:46:39;;;;;;;12.70;12.10;;;24.00;87.40;;;;;;3606649;39;20484;-43
2021/04/06 11:49:07;;;;;;;12.60;11.80;;;23.90;87.40;;;;;;3609184;39;20766;-43
2021/04/06 11:51:34;;;;;;;13.00;12.00;;;24.00;87.50;;;;;;3607867;39;20513;-43
2021/04/06 11:54:01;;;;;;;13.50;12.70;;;24.00;87.60;;;;;;3606549;39;20780;-43
2021/04/06 11:56:31;;;;;;;13.77;12.67;;;24.00;87.60;;;;;;3607581;39;20772;-43
2021/04/06 11:58:57;;;;;;;13.20;12.00;;;24.00;87.70;;;;;;3609315;39;20936;-43
2021/04/06 12:01:24;;;;;;;13.23;12.43;;;24.00;87.70;;;;;;3607468;39;20829;-43
2021/04/06 12:03:51;;;;;;;12.67;11.70;;;24.00;87.70;;;;;;3607987;39;20943;-43
2021/04/06 12:06:18;;;;;;;13.10;12.30;;;24.00;87.80;;;;;;3607994;39;20471;-43
2021/04/06 12:08:44;;;;;;;12.47;11.73;;;24.00;87.90;;;;;;3607420;39;20540;-41
2021/04/06 12:11:11;;;;;;;12.50;11.40;;;24.00;88.00;;;;;;3608117;39;20480;-43
2021/04/06 12:13:39;;;;;;;12.90;11.90;;;23.90;88.10;;;;;;3610426;39;20476;-43
2021/04/06 12:16:06;;;;;;;12.40;11.70;;;23.90;88.20;;;;;;3609596;39;20468;-43
2021/04/06 12:18:36;;;;;;;12.67;11.97;;;23.80;88.30;;;;;;3600858;39;20776;-43
2021/04/06 12:21:02;;;;;;;13.37;12.17;;;23.80;88.60;;;;;;3597883;39;20917;-43
2021/04/06 12:23:29;;;;;;;12.50;11.50;;;23.80;88.70;;;;;;3608999;39;20703;-43
2021/04/06 12:25:55;;;;;;;13.13;12.03;;;23.80;88.80;;;;;;3608001;39;20802;-43
2021/04/06 12:28:22;;;;;;;12.13;11.23;;;23.90;89.00;;;;;;3607466;39;20490;-42
2021/04/06 12:30:50;;;;;;;12.90;12.03;;;23.90;88.90;;;;;;3608925;39;20514;-42
2021/04/06 12:33:17;;;;;;;12.43;11.73;;;23.90;88.90;;;;;;3607805;39;20618;-43
2021/04/06 12:35:44;;;;;;;11.77;11.17;;;24.00;88.90;;;;;;3608394;39;20483;-43
2021/04/06 12:38:10;;;;;;;11.40;10.73;;;24.00;88.90;;;;;;3608758;39;20792;-43
2021/04/06 12:40:37;;;;;;;11.90;11.33;;;24.00;88.80;;;;;;3600331;39;20959;-43